MST,Max TemperatureF,Mean TemperatureF,Min TemperatureF,Max Dew PointF,MeanDew PointF,Min DewpointF,Max Humidity, Mean Humidity, Min Humidity, Max Sea Level PressureIn, Mean Sea Level PressureIn, Min Sea Level PressureIn, Max VisibilityMiles, Mean VisibilityMiles, Min VisibilityMiles, Max Wind SpeedMPH, Mean Wind SpeedMPH, Max Gust SpeedMPH,PrecipitationIn, CloudCover, Events, WindDirDegrees
2013-2-1,17,14,10,14,10,7,93,88,85,30.38,30.29,30.24,,,,,,,0.00,8,,-1
2013-2-2,21,16,10,16,9,3,92,77,53,30.51,30.46,30.36,,,,37,24,40,0.00,0,,255
2013-2-3,23,18,12,12,2,-8,93,54,28,30.45,30.27,30.15,,,,39,35,41,0.00,5,,267
2013-2-4,21,16,10,10,7,3,92,73,54,30.22,30.17,30.13,,,,44,32,48,0.00,1,,257
2013-2-5,30,21,12,14,10,5,85,60,51,30.28,30.23,30.17,,,,29,20,28,0.00,0,,245
2013-2-6,24,20,17,16,12,5,93,72,50,30.17,30.10,30.05,,,,38,28,45,0.00,3,,255
2013-2-7,26,18,10,14,4,-15,93,62,21,30.27,30.22,30.14,,,,18,12,21,0.00,2,,232
2013-2-8,26,20,14,18,12,5,93,75,51,30.21,30.02,29.86,,,,32,25,45,0.00,4,,206
2013-2-9,17,11,5,14,7,1,92,83,68,29.85,29.64,29.53,,,,26,26,,0.00,6,,220
2013-2-10,8,4,1,5,1,-4,92,84,78,29.86,29.73,29.59,,,,48,34,61,0.00,8,,257
2013-2-11,6,3,0,3,0,-4,92,84,78,29.93,29.87,29.83,,,,,,,0.00,8,,-1
2013-2-12,6,1,-4,3,-3,-9,85,82,78,30.08,30.00,29.92,,,,22,16,25,0.00,6,,238
2013-2-13,12,6,0,10,4,-4,92,85,78,30.15,30.10,30.06,,,,41,32,50,0.00,7,,252
2013-2-14,12,8,5,9,6,1,92,85,79,30.20,30.14,30.07,,,,13,10,,0.00,8,,265
2013-2-15,10,6,3,9,3,0,92,85,78,30.37,30.27,30.17,,,,39,29,44,0.00,8,,250
2013-2-16,21,13,5,7,4,1,92,71,50,30.40,30.33,30.25,,,,41,36,46,0.00,1,,264
2013-2-17,26,20,12,12,-2,-11,93,44,22,30.24,30.00,29.81,,,,39,31,47,0.00,3,,263
2013-2-18,12,6,0,10,-1,-18,92,74,26,30.11,29.96,29.78,,,,46,37,104,0.00,4,Thunderstorm,257
2013-2-19,23,16,8,1,-7,-17,49,38,25,30.11,30.00,29.85,,,,28,20,28,0.00,1,,214
2013-2-20,19,16,12,14,9,1,93,75,49,29.84,29.72,29.57,,,,23,10,,0.00,4,,71
2013-2-21,12,10,8,9,7,3,92,86,79,29.83,29.74,29.66,,,,,,,0.00,8,,-1
2013-2-22,10,6,1,7,2,-4,92,84,78,29.89,29.84,29.80,,,,28,28,,0.00,8,,260
2013-2-23,15,8,0,14,3,-6,93,85,78,29.87,29.79,29.68,,,,45,34,55,0.00,8,,246
2013-2-24,10,4,-2,9,0,-8,92,83,78,29.91,29.73,29.63,,,,43,30,120,0.00,7,,72
2013-2-25,12,5,-2,9,1,-6,92,82,73,30.01,29.96,29.90,,,,38,18,24,0.00,2,Thunderstorm,242
2013-2-26,10,5,0,3,0,-6,92,83,73,30.02,29.84,29.74,,,,29,26,,0.00,6,,245
2013-2-27,8,3,-2,3,-3,-9,85,78,61,30.22,30.14,30.03,,,,24,17,36,0.00,2,,233
2013-2-28,10,3,-4,5,-1,-9,92,78,61,30.31,30.25,30.19,,,,40,26,47,0.00,2,Thunderstorm,247